Time;durP1;ratioP1;P1;durP2;ratioP2;P2;SDS_P1;SDS_P2;PMS_P1;PMS_P2;Temp;Humidity;BMP_temperature;BMP_pressure;BME280_temperature;BME280_humidity;BME280_pressure;Samples;Min_cycle;Max_cycle;Signal;HPM_P1;HPM_P2
2023/09/18 00:00:11;;;;;;;;;;;;;;;;;;5004447;28;19924;-71
2023/09/18 00:02:37;;;;;;;;;;;;;;;;;;5007303;28;19913;-71
2023/09/18 00:05:02;;;;;;;;;;;;;;;;;;5007660;28;19921;-70
2023/09/18 00:07:27;;;;;;;;;;;;;;;;;;5006082;28;19986;-70
2023/09/18 00:09:52;;;;;;;;;;;;;;;;;;5006924;28;20356;-69
2023/09/18 00:12:17;;;;;;;;;;;;;;;;;;5007654;28;19924;-69
2023/09/18 00:14:43;;;;;;;;;;;;;;;;;;5005422;28;19917;-70
2023/09/18 00:17:08;;;;;;;;;;;;;;;;;;5004786;28;19917;-69
2023/09/18 00:19:33;;;;;;;;;;;;;;;;;;5005259;28;19913;-69
2023/09/18 00:22:00;;;;;;;;;;;;;;;;;;5005850;28;20935;-70
2023/09/18 00:24:25;;;;;;;;;;;;;;;;;;5004406;28;19921;-69
2023/09/18 00:26:52;;;;;;;;;;;;;;;;;;5005146;28;19913;-69
2023/09/18 00:29:17;;;;;;;;;;;;;;;;;;5004930;28;19917;-69
2023/09/18 00:31:43;;;;;;;;;;;;;;;;;;5005328;28;19920;-69
2023/09/18 00:34:08;;;;;;;;;;;;;;;;;;5008157;28;19925;-72
2023/09/18 00:36:33;;;;;;;;;;;;;;;;;;5006557;28;20287;-72
2023/09/18 00:38:58;;;;;;;;;;;;;;;;;;5004641;28;19917;-73
2023/09/18 00:41:23;;;;;;;;;;;;;;;;;;5004093;28;19914;-75
2023/09/18 00:43:49;;;;;;;;;;;;;;;;;;5005122;28;19917;-72
2023/09/18 00:46:14;;;;;;;;;;;;;;;;;;5006733;28;19917;-73
2023/09/18 00:48:39;;;;;;;;;;;;;;;;;;5006211;28;19917;-73
2023/09/18 00:51:04;;;;;;;;;;;;;;;;;;4989504;28;19917;-71
2023/09/18 00:53:30;;;;;;;;;;;;;;;;;;5004663;28;19917;-70
2023/09/18 00:55:55;;;;;;;;;;;;;;;;;;4983804;28;20406;-70
2023/09/18 00:58:20;;;;;;;;;;;;;;;;;;4982494;28;20015;-69
2023/09/18 01:00:45;;;;;;;;;;;;;;;;;;5005205;28;19913;-70
2023/09/18 01:03:11;;;;;;;;;;;;;;;;;;5007838;28;19913;-70
2023/09/18 01:05:36;;;;;;;;;;;;;;;;;;5005493;28;20311;-69
2023/09/18 01:08:01;;;;;;;;;;;;;;;;;;4986519;28;19914;-70
2023/09/18 01:10:26;;;;;;;;;;;;;;;;;;5004324;28;19967;-69
2023/09/18 01:12:51;;;;;;;;;;;;;;;;;;4984301;28;19945;-70
2023/09/18 01:15:16;;;;;;;;;;;;;;;;;;5005169;28;20557;-69
2023/09/18 01:17:42;;;;;;;;;;;;;;;;;;5005371;28;20422;-70
2023/09/18 01:20:07;;;;;;;;;;;;;;;;;;5005397;28;20035;-72
2023/09/18 01:22:32;;;;;;;;;;;;;;;;;;4988720;28;20075;-71
2023/09/18 01:24:57;;;;;;;;;;;;;;;;;;5006099;28;20002;-71
2023/09/18 01:27:22;;;;;;;;;;;;;;;;;;5007847;28;20080;-71
2023/09/18 01:29:48;;;;;;;;;;;;;;;;;;5004989;28;19910;-71
2023/09/18 01:32:14;;;;;;;;;;;;;;;;;;5004695;28;19918;-72
2023/09/18 01:34:41;;;;;;;;;;;;;;;;;;5004920;28;19913;-72
2023/09/18 01:37:08;;;;;;;;;;;;;;;;;;4984490;28;19909;-71
2023/09/18 01:39:33;;;;;;;;;;;;;;;;;;4985460;28;20667;-72
2023/09/18 01:41:58;;;;;;;;;;;;;;;;;;4988481;28;19945;-72
2023/09/18 01:44:23;;;;;;;;;;;;;;;;;;4983481;28;20379;-71
2023/09/18 01:46:51;;;;;;;;;;;;;;;;;;5007598;28;19937;-71
2023/09/18 01:49:16;;;;;;;;;;;;;;;;;;5003933;28;20726;-72
2023/09/18 01:51:41;;;;;;;;;;;;;;;;;;5004819;28;20521;-72
2023/09/18 01:54:06;;;;;;;;;;;;;;;;;;5005991;28;20032;-71
2023/09/18 01:56:32;;;;;;;;;;;;;;;;;;5004709;28;19954;-71
2023/09/18 01:58:57;;;;;;;;;;;;;;;;;;5003893;28;20058;-72
2023/09/18 02:01:22;;;;;;;;;;;;;;;;;;4987897;28;19913;-72
2023/09/18 02:03:47;;;;;;;;;;;;;;;;;;4990359;28;19914;-73
2023/09/18 02:06:12;;;;;;;;;;;;;;;;;;5004276;28;19919;-73
2023/09/18 02:08:37;;;;;;;;;;;;;;;;;;4987485;28;19984;-71
2023/09/18 02:11:04;;;;;;;;;;;;;;;;;;5004386;28;19925;-72
2023/09/18 02:13:29;;;;;;;;;;;;;;;;;;5002251;28;20376;-72
2023/09/18 02:15:55;;;;;;;;;;;;;;;;;;4983508;28;19928;-73
2023/09/18 02:18:20;;;;;;;;;;;;;;;;;;4985123;28;20346;-73
2023/09/18 02:20:48;;;;;;;;;;;;;;;;;;5004076;28;20335;-71
2023/09/18 02:23:14;;;;;;;;;;;;;;;;;;5003990;28;19952;-73
2023/09/18 02:25:40;;;;;;;;;;;;;;;;;;5005297;28;20672;-73
2023/09/18 02:28:05;;;;;;;;;;;;;;;;;;4986095;28;19925;-73
2023/09/18 02:30:30;;;;;;;;;;;;;;;;;;5008503;28;19913;-73
2023/09/18 02:32:55;;;;;;;;;;;;;;;;;;5010842;28;19992;-72
2023/09/18 02:35:20;;;;;;;;;;;;;;;;;;5010217;28;20276;-73
2023/09/18 02:37:45;;;;;;;;;;;;;;;;;;5009691;28;20291;-73
2023/09/18 02:40:11;;;;;;;;;;;;;;;;;;5007693;28;19913;-73
2023/09/18 02:42:36;;;;;;;;;;;;;;;;;;5009150;28;19968;-71
2023/09/18 02:45:01;;;;;;;;;;;;;;;;;;5007117;28;19963;-72
2023/09/18 02:47:26;;;;;;;;;;;;;;;;;;5008999;28;19909;-72
2023/09/18 02:49:51;;;;;;;;;;;;;;;;;;5010960;28;20161;-72
2023/09/18 02:52:16;;;;;;;;;;;;;;;;;;4983668;28;19978;-73
2023/09/18 02:54:41;;;;;;;;;;;;;;;;;;5009059;28;19919;-73
2023/09/18 02:57:07;;;;;;;;;;;;;;;;;;5009344;28;19927;-73
2023/09/18 02:59:32;;;;;;;;;;;;;;;;;;5005986;28;20394;-74
2023/09/18 03:01:57;;;;;;;;;;;;;;;;;;5009693;28;19924;-72
2023/09/18 03:04:22;;;;;;;;;;;;;;;;;;5008970;28;19921;-73
2023/09/18 03:06:47;;;;;;;;;;;;;;;;;;5010455;28;19917;-73
2023/09/18 03:09:12;;;;;;;;;;;;;;;;;;5007974;28;20445;-68
2023/09/18 03:11:38;;;;;;;;;;;;;;;;;;5007836;28;19921;-69
2023/09/18 03:14:03;;;;;;;;;;;;;;;;;;5008009;28;19913;-69
2023/09/18 03:16:31;;;;;;;;;;;;;;;;;;5008310;28;19917;-72
2023/09/18 03:18:56;;;;;;;;;;;;;;;;;;5006334;28;19948;-74
2023/09/18 03:21:21;;;;;;;;;;;;;;;;;;5009486;28;19948;-72
2023/09/18 03:23:47;;;;;;;;;;;;;;;;;;5009339;28;19920;-72
2023/09/18 03:26:12;;;;;;;;;;;;;;;;;;5007501;28;19955;-72
2023/09/18 03:28:37;;;;;;;;;;;;;;;;;;5007125;28;19921;-73
2023/09/18 03:31:04;;;;;;;;;;;;;;;;;;4990671;28;19921;-72
2023/09/18 03:33:30;;;;;;;;;;;;;;;;;;4987576;28;20368;-72
2023/09/18 03:35:57;;;;;;;;;;;;;;;;;;5006184;28;19924;-72
2023/09/18 03:38:22;;;;;;;;;;;;;;;;;;4987674;28;19921;-72
2023/09/18 03:40:48;;;;;;;;;;;;;;;;;;4986446;28;19924;-72
2023/09/18 03:43:13;;;;;;;;;;;;;;;;;;5007881;28;19920;-72
2023/09/18 03:45:40;;;;;;;;;;;;;;;;;;5005916;28;19918;-72
2023/09/18 03:48:05;;;;;;;;;;;;;;;;;;5007137;28;19913;-72
2023/09/18 03:50:30;;;;;;;;;;;;;;;;;;5008827;28;20288;-73
2023/09/18 03:52:56;;;;;;;;;;;;;;;;;;4991165;28;19919;-72
2023/09/18 03:55:21;;;;;;;;;;;;;;;;;;5003781;28;19920;-72
2023/09/18 03:57:48;;;;;;;;;;;;;;;;;;4986229;28;20706;-73
2023/09/18 04:00:13;;;;;;;;;;;;;;;;;;5006424;28;20458;-72
2023/09/18 04:02:38;;;;;;;;;;;;;;;;;;5009201;28;20579;-72
2023/09/18 04:05:03;;;;;;;;;;;;;;;;;;5004334;28;20030;-72
2023/09/18 04:07:29;;;;;;;;;;;;;;;;;;5007505;28;20368;-72
2023/09/18 04:09:54;;;;;;;;;;;;;;;;;;5008139;28;19914;-71
2023/09/18 04:12:19;;;;;;;;;;;;;;;;;;4990732;28;19927;-72
2023/09/18 04:14:44;;;;;;;;;;;;;;;;;;5008119;28;19924;-72
2023/09/18 04:17:09;;;;;;;;;;;;;;;;;;5007199;28;19929;-72
2023/09/18 04:19:34;;;;;;;;;;;;;;;;;;5006010;28;19909;-72
2023/09/18 04:21:59;;;;;;;;;;;;;;;;;;5004572;28;20530;-72
2023/09/18 04:24:25;;;;;;;;;;;;;;;;;;5007597;28;19914;-73
2023/09/18 04:26:53;;;;;;;;;;;;;;;;;;4986409;28;20008;-71
2023/09/18 04:29:18;;;;;;;;;;;;;;;;;;5008926;28;19917;-70
2023/09/18 04:31:43;;;;;;;;;;;;;;;;;;5010200;28;19916;-70
2023/09/18 04:34:08;;;;;;;;;;;;;;;;;;5007278;28;19917;-71
2023/09/18 04:36:33;;;;;;;;;;;;;;;;;;5008386;28;19936;-70
2023/09/18 04:38:59;;;;;;;;;;;;;;;;;;5008894;28;19977;-71
2023/09/18 04:41:24;;;;;;;;;;;;;;;;;;4989573;28;19933;-70
2023/09/18 04:43:50;;;;;;;;;;;;;;;;;;5007189;28;20372;-72
2023/09/18 04:46:15;;;;;;;;;;;;;;;;;;5006285;28;20332;-67
2023/09/18 04:48:41;;;;;;;;;;;;;;;;;;5008208;28;20006;-68
2023/09/18 04:51:06;;;;;;;;;;;;;;;;;;5006098;28;20260;-69
2023/09/18 04:53:31;;;;;;;;;;;;;;;;;;5005684;28;19924;-68
2023/09/18 04:55:56;;;;;;;;;;;;;;;15.22;nan;100873.81;5003829;28;20287;-68
2023/09/18 04:58:21;;;;;;;;;;;;;;;15.24;nan;100885.78;5006685;28;20362;-69
2023/09/18 05:00:52;;;;;;;;;;;;;;;15.27;nan;100884.47;5006174;28;20298;-71
2023/09/18 05:03:18;;;;;;;;;;;;;;;15.27;nan;100885.28;5006651;28;19917;-71
2023/09/18 05:05:44;;;;;;;;;;;;;;;15.31;nan;100886.41;5006526;28;19932;-71
2023/09/18 05:08:09;;;;;;;;;;;;;;;15.37;nan;100886.47;5004691;28;20314;-72
2023/09/18 05:10:34;;;;;;;;;;;;;;;15.43;nan;100886.31;4988203;28;19979;-72
2023/09/18 05:13:00;;;;;;;;;;;;;;;15.47;nan;100892.75;4990570;28;19983;-70
2023/09/18 05:15:32;;;;;;;;;;;;;;;15.54;nan;100887.25;5002728;28;19921;-70
2023/09/18 05:17:58;;;;;;;;;;;;;;;15.40;nan;100860.25;5005143;28;19921;-71
2023/09/18 05:20:24;;;;;;;;;;;;;;;15.64;nan;100886.59;5004810;28;19920;-72
2023/09/18 05:22:50;;;;;;;;;;;;;;;15.69;nan;100881.34;5004967;28;19917;-71
2023/09/18 05:25:15;;;;;;;;;;;;;;;15.74;nan;100879.56;5003380;28;19923;-71
2023/09/18 05:27:44;;;;;;;;;;;;;;;15.79;nan;100876.16;5001852;28;19917;-72
2023/09/18 05:30:13;;;;;;;;;;;;;;;15.86;nan;100870.69;5006818;28;19924;-72
2023/09/18 05:32:38;;;;;;;;;;;;;;;15.93;nan;100880.06;5006908;28;19967;-71
2023/09/18 05:35:06;;;;;;;;;;;;;;;15.99;nan;100875.59;5006031;28;20335;-71
2023/09/18 05:37:31;;;;;;;;;;;;;;;16.06;nan;100878.06;5007423;28;19913;-69
2023/09/18 05:39:56;;;;;;;;;;;;;;;16.12;nan;100877.06;5006766;28;20415;-71
2023/09/18 05:42:22;;;;;;;;;;;;;;;16.18;nan;100873.41;5006163;28;19913;-71
2023/09/18 05:44:47;;;;;;;;;;;;;;;16.25;nan;100881.97;5005643;28;19909;-70
2023/09/18 05:47:13;;;;;;;;;;;;;;;16.30;nan;100871.38;4986889;28;20367;-71
2023/09/18 05:49:38;;;;;;;;;;;;;;;16.36;nan;100883.69;5006074;28;20016;-69
2023/09/18 05:52:03;;;;;;;;;;;;;;;16.45;nan;100875.25;5005030;28;20007;-69
2023/09/18 05:54:28;;;;;;;;;;;;;;;16.53;nan;100877.47;5003516;28;19917;-68
2023/09/18 05:56:54;;;;;;;;;;;;;;;16.61;nan;100868.22;5005488;28;20299;-69
2023/09/18 05:59:20;;;;;;;;;;;;;;;16.69;nan;100875.72;4999977;28;19929;-70
2023/09/18 06:01:45;;;;;;;;;;;;;;;16.76;nan;100868.31;5000272;28;20044;-70
2023/09/18 06:04:10;;;;;;;;;;;;;;;16.80;nan;100867.59;5004875;28;19917;-71
2023/09/18 06:06:36;;;;;;;;;;;;;;;16.87;nan;100871.91;5004105;28;20295;-70
2023/09/18 06:09:01;;;;;;;;;;;;;;;16.92;nan;100864.75;4987740;28;20000;-70
2023/09/18 06:11:27;;;;;;;;;;;;;;;17.06;nan;100866.97;5005275;28;19953;-71
2023/09/18 06:13:52;;;;;;;;;;;;;;;17.12;nan;100863.28;5006505;28;19913;-72
2023/09/18 06:16:17;;;;;;;;;;;;;;;17.20;nan;100858.28;5004716;28;19917;-71
2023/09/18 06:18:43;;;;;;;;;;;;;;;17.29;nan;100865.81;5004593;28;19940;-71
2023/09/18 06:21:08;;;;;;;;;;;;;;;17.38;nan;100869.56;5006618;28;19922;-72
2023/09/18 06:23:34;;;;;;;;;;;;;;;17.44;nan;100868.53;5004260;28;20265;-70
2023/09/18 06:25:59;;;;;;;;;;;;;;;17.56;nan;100876.31;5004185;28;19971;-69
2023/09/18 06:28:25;;;;;;;;;;;;;;;17.73;nan;100874.25;5002325;28;19914;-71
2023/09/18 06:30:50;;;;;;;;;;;;;;;17.81;nan;100865.78;5001902;28;19968;-71
2023/09/18 06:33:16;;;;;;;;;;;;;;;17.94;nan;100871.69;5003303;28;19913;-70
2023/09/18 06:35:42;;;;;;;;;;;;;;;18.05;nan;100870.63;5005084;28;19918;-72
2023/09/18 06:38:10;;;;;;;;;;;;;;;18.12;nan;100868.50;5006673;28;19910;-72
2023/09/18 06:40:35;;;;;;;;;;;;;;;18.19;nan;100877.06;5005632;28;19940;-72
2023/09/18 06:43:01;;;;;;;;;;;;;;;18.30;nan;100869.88;5006689;28;19917;-70
2023/09/18 06:45:27;;;;;;;;;;;;;;;18.34;nan;100868.31;5003924;28;19917;-70
2023/09/18 06:47:53;;;;;;;;;;;;;;;18.43;nan;100860.56;5006459;28;19968;-70
2023/09/18 06:50:18;;;;;;;;;;;;;;;18.59;nan;100866.72;5006483;28;20291;-71
2023/09/18 06:52:43;;;;;;;;;;;;;;;18.73;nan;100867.78;5006219;28;19913;-71
2023/09/18 06:55:09;;;;;;;;;;;;;;;18.83;nan;100865.13;5006562;28;19924;-70
2023/09/18 06:57:34;;;;;;;;;;;;;;;18.94;nan;100862.44;5005473;28;20007;-71
2023/09/18 06:59:59;;;;;;;;;;;;;;;19.03;nan;100868.81;5006424;28;20370;-72
2023/09/18 07:02:25;;;;;;;;;;;;;;;19.18;nan;100868.00;5001064;28;19957;-72
2023/09/18 07:04:51;;;;;;;;;;;;;;;19.24;nan;100870.38;5004988;28;19913;-72
2023/09/18 07:07:16;;;;;;;;;;;;;;;19.40;nan;100862.34;5004597;28;19924;-71
2023/09/18 07:09:41;;;;;;;;;;;;;;;19.45;nan;100865.78;5005659;28;20855;-72
2023/09/18 07:12:08;;;;;;;;;;;;;;;19.62;nan;100873.47;5005764;28;19913;-71
2023/09/18 07:14:33;;;;;;;;;;;;;;;19.82;nan;100861.91;5010525;28;19918;-72
2023/09/18 07:17:00;;;;;;;;;;;;;;;19.94;nan;100858.91;5005490;28;20300;-71
2023/09/18 07:19:26;;;;;;;;;;;;;;;19.99;nan;100864.22;4991406;28;20360;-71
2023/09/18 07:21:51;;;;;;;;;;;;;;;20.04;nan;100866.88;5006548;28;19917;-71
2023/09/18 07:24:17;;;;;;;;;;;;;;;20.26;nan;100869.16;5005168;28;19914;-72
2023/09/18 07:26:43;;;;;;;;;;;;;;;20.35;nan;100872.00;4990363;28;19921;-71
2023/09/18 07:29:08;;;;;;;;;;;;;;;20.51;nan;100864.69;5007735;28;20588;-70
2023/09/18 07:31:35;;;;;;;;;;;;;;;20.60;nan;100863.81;5008099;28;19920;-71
2023/09/18 07:34:00;;;;;;;;;;;;;;;20.72;nan;100874.16;5006616;28;19913;-72
2023/09/18 07:36:26;;;;;;;;;;;;;;;20.86;nan;100874.31;5008704;28;19924;-71
2023/09/18 07:38:51;;;;;;;;;;;;;;;20.96;nan;100866.19;5008950;28;20528;-71
2023/09/18 07:41:17;;;;;;;;;;;;;;;21.11;nan;100867.91;4988663;28;20306;-71
2023/09/18 07:43:42;;;;;;;;;;;;;;;21.23;nan;100870.19;5008046;28;19960;-71
2023/09/18 07:46:07;;;;;;;;;;;;;;;21.23;nan;100868.28;5005223;28;19964;-72
2023/09/18 07:48:34;;;;;;;;;;;;;;;21.40;nan;100862.50;4992560;28;20000;-71
2023/09/18 07:50:59;;;;;;;;;;;;;;;21.52;nan;100864.00;5006055;28;20339;-71
2023/09/18 07:53:24;;;;;;;;;;;;;;;21.57;nan;100858.56;5008022;28;19909;-71
2023/09/18 07:55:56;;;;;;;;;;;;;;;21.67;nan;100850.41;4987002;28;19913;-70
2023/09/18 07:58:21;;;;;;;;;;;;;;;21.83;nan;100856.34;5005203;28;19958;-72
2023/09/18 08:00:48;;;;;;;;;;;;;;;21.94;nan;100849.75;5007354;28;20151;-71
2023/09/18 08:03:13;;;;;;;;;;;;;;;22.13;nan;100848.97;5010534;28;19913;-72
2023/09/18 08:05:39;;;;;;;;;;;;;;;22.16;nan;100849.16;5008046;28;20360;-70
2023/09/18 08:08:05;;;;;;;;;;;;;;;22.23;nan;100854.19;5006297;28;19917;-70
2023/09/18 08:10:30;;;;;;;;;;;;;;;22.37;nan;100840.84;5008448;28;19963;-72
2023/09/18 08:12:55;;;;;;;;;;;;;;;22.48;nan;100855.66;4987751;28;19952;-71
2023/09/18 08:15:21;;;;;;;;;;;;;;;22.55;nan;100847.25;5005252;28;19925;-69
2023/09/18 08:17:48;;;;;;;;;;;;;;;22.61;nan;100851.44;4989183;28;20363;-73
2023/09/18 08:20:14;;;;;;;;;;;;;;;22.72;nan;100839.41;5004866;28;20044;-72
2023/09/18 08:22:40;;;;;;;;;;;;;;;22.82;nan;100838.44;5002046;28;19913;-70
2023/09/18 08:25:07;;;;;;;;;;;;;;;22.92;nan;100836.38;5006220;28;19996;-71
2023/09/18 08:27:33;;;;;;;;;;;;;;;23.06;nan;100839.13;5006755;28;19924;-69
2023/09/18 08:29:58;;;;;;;;;;;;;;;23.12;nan;100831.75;5007094;28;20283;-71
2023/09/18 08:32:24;;;;;;;;;;;;;;;23.24;nan;100823.97;5005795;28;19925;-71
2023/09/18 08:34:49;;;;;;;;;;;;;;;23.32;nan;100820.59;5004641;28;19921;-71
2023/09/18 08:37:14;;;;;;;;;;;;;;;23.40;nan;100816.41;5006980;28;19917;-72
2023/09/18 08:39:39;;;;;;;;;;;;;;;23.48;nan;100812.22;5004277;28;19924;-71
2023/09/18 08:42:07;;;;;;;;;;;;;;;23.57;nan;100813.09;5007583;28;20302;-69
2023/09/18 08:44:32;;;;;;;;;;;;;;;23.65;nan;100816.94;4989600;28;19960;-71
2023/09/18 08:46:57;;;;;;;;;;;;;;;23.69;nan;100809.88;5007367;28;19948;-71
2023/09/18 08:49:23;;;;;;;;;;;;;;;23.76;nan;100811.06;5006032;28;19913;-71
2023/09/18 08:51:50;;;;;;;;;;;;;;;23.87;nan;100805.47;5006546;28;19913;-70
2023/09/18 08:54:15;;;;;;;;;;;;;;;23.97;nan;100806.03;5005927;28;19913;-70
2023/09/18 08:56:41;;;;;;;;;;;;;;;24.09;nan;100805.47;5007337;28;19976;-71
2023/09/18 08:59:06;;;;;;;;;;;;;;;24.18;nan;100803.66;5003031;28;19913;-70
2023/09/18 09:01:32;;;;;;;;;;;;;;;24.27;nan;100811.75;5008164;28;20031;-70
2023/09/18 09:03:57;;;;;;;;;;;;;;;24.36;nan;100809.94;5004312;28;19923;-71
2023/09/18 09:06:22;;;;;;;;;;;;;;;24.49;nan;100808.28;4988196;28;20044;-73
2023/09/18 09:08:47;;;;;;;;;;;;;;;24.61;nan;100807.72;5006092;28;19925;-73
2023/09/18 09:11:13;;;;;;;;;;;;;;;24.69;nan;100803.50;5007155;28;20264;-71
2023/09/18 09:13:38;;;;;;;;;;;;;;;24.80;nan;100804.78;5004549;28;19921;-72
2023/09/18 09:16:03;;;;;;;;;;;;;;;24.89;nan;100804.84;5007426;28;19922;-71
2023/09/18 09:18:29;;;;;;;;;;;;;;;24.99;nan;100804.53;5007241;28;20387;-72
2023/09/18 09:21:00;;;;;;;;;;;;;;;25.06;nan;100807.56;5004947;28;19920;-72
2023/09/18 09:23:26;;;;;;;;;;;;;;;25.12;nan;100803.66;5005666;28;19957;-73
2023/09/18 09:25:52;;;;;;;;;;;;;;;25.17;nan;100795.44;5006802;28;19918;-73
2023/09/18 09:28:28;;;;;;;;;;;;;;;25.25;nan;100797.34;5005599;28;19920;-71
2023/09/18 09:31:00;;;;;;;;;;;;;;;25.31;nan;100795.31;5009302;28;19940;-71
2023/09/18 09:33:26;;;;;;;;;;;;;;;25.34;nan;100794.69;5006359;28;19917;-69
2023/09/18 09:35:51;;;;;;;;;;;;;;;25.45;nan;100795.16;5007017;28;19913;-71
2023/09/18 09:38:19;;;;;;;;;;;;;;;25.55;nan;100773.28;4988983;28;19917;-71
2023/09/18 09:40:45;;;;;;;;;;;;;;;25.60;nan;100785.84;5005537;28;19980;-71
2023/09/18 09:43:13;;;;;;;;;;;;;;;25.66;nan;100787.25;5002425;28;20371;-72
2023/09/18 09:45:39;;;;;;;;;;;;;;;25.70;nan;100779.31;5006776;28;19909;-70
2023/09/18 09:48:06;;;;;;;;;;;;;;;25.77;nan;100776.94;5007590;28;19920;-71
2023/09/18 09:50:32;;;;;;;;;;;;;;;25.82;nan;100771.38;5006715;28;19963;-71
2023/09/18 09:52:57;;;;;;;;;;;;;;;25.89;nan;100777.13;5005525;28;19917;-70
2023/09/18 09:55:24;;;;;;;;;;;;;;;25.94;nan;100776.16;5005031;28;20372;-70
2023/09/18 09:57:50;;;;;;;;;;;;;;;25.99;nan;100765.22;5006135;28;19956;-72
2023/09/18 10:00:36;;;;;;;;;;;;;;;26.03;nan;100763.47;5002025;28;19968;-71
2023/09/18 10:03:03;;;;;;;;;;;;;;;26.08;nan;100764.06;5004806;28;20338;-72
2023/09/18 10:05:29;;;;;;;;;;;;;;;26.12;nan;100761.50;5005233;28;19979;-71
2023/09/18 10:07:58;;;;;;;;;;;;;;;26.18;nan;100757.53;5006844;28;19952;-71
2023/09/18 10:10:24;;;;;;;;;;;;;;;26.21;nan;100759.59;5005099;28;20315;-71
2023/09/18 10:12:49;;;;;;;;;;;;;;;26.23;nan;100751.97;5005008;28;19913;-71
2023/09/18 10:15:16;;;;;;;;;;;;;;;26.26;nan;100751.31;5004487;28;19916;-71
2023/09/18 10:17:44;;;;;;;;;;;;;;;26.30;nan;100740.69;5006006;28;19924;-71
2023/09/18 10:20:19;;;;;;;;;;;;;;;26.34;nan;100740.81;5004464;28;19917;-71
2023/09/18 10:22:52;;;;;;;;;;;;;;;26.40;nan;100734.91;5005803;28;19916;-71
2023/09/18 10:25:21;;;;;;;;;;;;;;;26.49;nan;100735.69;4987426;28;19968;-72
2023/09/18 10:27:49;;;;;;;;;;;;;;;26.56;nan;100731.72;5005654;28;20706;-72
2023/09/18 10:30:18;;;;;;;;;;;;;;;26.62;nan;100725.00;5006843;28;19913;-72
2023/09/18 10:32:45;;;;;;;;;;;;;;;26.67;nan;100724.81;4987336;28;19917;-72
2023/09/18 10:35:12;;;;;;;;;;;;;;;26.70;nan;100718.78;5004592;28;19913;-71
2023/09/18 10:37:37;;;;;;;;;;;;;;;26.74;nan;100717.00;5004661;28;20384;-72
2023/09/18 10:40:07;;;;;;;;;;;;;;;26.78;nan;100715.22;5005649;28;19928;-71
2023/09/18 10:42:33;;;;;;;;;;;;;;;26.81;nan;100711.88;5004982;28;20004;-72
2023/09/18 10:44:59;;;;;;;;;;;;;;;26.86;nan;100711.69;5005365;28;20040;-72
2023/09/18 10:47:25;;;;;;;;;;;;;;;26.90;nan;100696.41;5008515;28;20059;-71
2023/09/18 10:49:50;;;;;;;;;;;;;;;26.97;nan;100700.50;5010120;28;20536;-70
2023/09/18 10:52:16;;;;;;;;;;;;;;;27.06;nan;100698.53;4989884;28;19917;-71
2023/09/18 10:54:41;;;;;;;;;;;;;;;27.10;nan;100696.75;5007983;28;20319;-72
2023/09/18 10:57:06;;;;;;;;;;;;;;;27.14;nan;100684.16;5008337;28;20372;-71
2023/09/18 10:59:32;;;;;;;;;;;;;;;27.19;nan;100685.88;5007142;28;20390;-72
2023/09/18 11:02:02;;;;;;;;;;;;;;;27.22;nan;100682.53;5008015;28;19920;-72
2023/09/18 11:04:28;;;;;;;;;;;;;;;27.26;nan;100686.16;5006203;28;20036;-71
2023/09/18 11:06:54;;;;;;;;;;;;;;;27.23;nan;100684.91;4990815;28;20578;-71
2023/09/18 11:09:22;;;;;;;;;;;;;;;27.22;nan;100682.53;5008578;28;19948;-72
2023/09/18 11:11:56;;;;;;;;;;;;;;;27.22;nan;100672.50;5007520;28;20388;-71
2023/09/18 11:14:22;;;;;;;;;;;;;;;27.31;nan;100672.44;4991189;28;19909;-73
2023/09/18 11:16:48;;;;;;;;;;;;;;;27.41;nan;100671.25;5009187;28;19944;-73
2023/09/18 11:19:17;;;;;;;;;;;;;;;27.40;nan;100665.03;4990053;28;19913;-73
2023/09/18 11:21:43;;;;;;;;;;;;;;;27.44;nan;100657.03;5007647;28;19909;-73
2023/09/18 11:24:16;;;;;;;;;;;;;;;27.49;nan;100673.88;5005308;28;19913;-73
2023/09/18 11:26:42;;;;;;;;;;;;;;;27.54;nan;100673.66;5009565;28;19913;-73
2023/09/18 11:29:09;;;;;;;;;;;;;;;27.60;nan;100668.03;5006328;28;20272;-73
2023/09/18 11:31:43;;;;;;;;;;;;;;;27.64;nan;100663.56;5007310;28;20062;-73
2023/09/18 11:34:14;;;;;;;;;;;;;;;27.69;nan;100664.13;5006379;28;19943;-68
2023/09/18 11:36:40;;;;;;;;;;;;;;;27.68;nan;100662.56;5008876;28;19917;-73
2023/09/18 11:39:05;;;;;;;;;;;;;;;27.66;nan;100662.09;5009350;28;19909;-72
2023/09/18 11:41:32;;;;;;;;;;;;;;;27.67;nan;100665.59;5008557;28;19909;-73
2023/09/18 11:44:19;;;;;;;;;;;;;;;27.70;nan;100656.78;5004833;28;19913;-73
2023/09/18 11:46:50;;;;;;;;;;;;;;;27.71;nan;100661.88;5007613;28;20337;-72
2023/09/18 11:49:20;;;;;;;;;;;;;;;27.68;nan;100659.84;5007308;28;19920;-73
2023/09/18 11:51:46;;;;;;;;;;;;;;;27.53;nan;100628.00;5008004;28;19917;-72
2023/09/18 11:54:11;;;;;;;;;;;;;;;27.72;nan;100655.31;5001909;28;19959;-69
2023/09/18 11:56:39;;;;;;;;;;;;;;;27.81;nan;100652.53;5007118;28;19922;-69
2023/09/18 11:59:06;;;;;;;;;;;;;;;27.86;nan;100654.28;4987617;28;20081;-69
2023/09/18 12:01:35;;;;;;;;;;;;;;;27.85;nan;100658.13;5008928;28;19983;-69
2023/09/18 12:04:01;;;;;;;;;;;;;;;27.74;nan;100598.97;4990344;28;20000;-68
2023/09/18 12:06:26;;;;;;;;;;;;;;;27.76;nan;100660.88;5006761;28;19988;-69
2023/09/18 12:08:52;;;;;;;;;;;;;;;27.79;nan;100657.50;5008378;28;20000;-68
2023/09/18 12:11:19;;;;;;;;;;;;;;;27.79;nan;100660.97;5009128;28;19917;-69
2023/09/18 12:13:45;;;;;;;;;;;;;;;27.81;nan;100655.25;4990172;28;19916;-69
2023/09/18 12:16:11;;;;;;;;;;;;;;;27.84;nan;100661.94;5005876;28;19913;-73
2023/09/18 12:18:37;;;;;;;;;;;;;;;27.80;nan;100653.69;5006544;28;19924;-72
2023/09/18 12:21:06;;;;;;;;;;;;;;;27.78;nan;100658.63;5006905;28;20442;-73
2023/09/18 12:23:38;;;;;;;;;;;;;;;27.78;nan;100654.00;5007896;28;19920;-72
2023/09/18 12:26:06;;;;;;;;;;;;;;;27.84;nan;100651.09;5008102;28;19999;-73
2023/09/18 12:28:32;;;;;;;;;;;;;;;27.84;nan;100643.78;5007661;28;20313;-73
2023/09/18 12:30:59;;;;;;;;;;;;;;;27.86;nan;100651.56;4988519;28;19914;-72
2023/09/18 12:33:24;;;;;;;;;;;;;;;27.91;nan;100643.22;4989099;28;19914;-72
2023/09/18 12:35:51;;;;;;;;;;;;;;;27.96;nan;100637.59;5005921;28;19913;-72
2023/09/18 12:38:19;;;;;;;;;;;;;;;27.98;nan;100646.16;5007201;28;19944;-73
2023/09/18 12:40:46;;;;;;;;;;;;;;;27.95;nan;100644.13;5007441;28;19913;-72
2023/09/18 12:43:12;;;;;;;;;;;;;;;27.94;nan;100639.84;5005893;28;19913;-72
2023/09/18 12:45:38;;;;;;;;;;;;;;;27.96;nan;100640.28;5006135;28;19936;-72
2023/09/18 12:48:03;;;;;;;;;;;;;;;27.98;nan;100644.25;5007756;28;19913;-72
2023/09/18 12:50:29;;;;;;;;;;;;;;;28.00;nan;100641.22;5006437;28;20398;-69
2023/09/18 12:53:06;;;;;;;;;;;;;;;27.99;nan;100642.31;4988737;28;19975;-68
2023/09/18 12:55:32;;;;;;;;;;;;;;;27.95;nan;100641.44;5005540;28;20327;-71
2023/09/18 12:57:59;;;;;;;;;;;;;;;27.93;nan;100630.16;5006801;28;19921;-71
2023/09/18 13:00:26;;;;;;;;;;;;;;;27.93;nan;100643.69;5008058;28;19917;-71
2023/09/18 13:02:54;;;;;;;;;;;;;;;27.93;nan;100647.16;4990739;28;19917;-71
2023/09/18 13:05:20;;;;;;;;;;;;;;;27.96;nan;100646.50;5008401;28;19909;-72
2023/09/18 13:07:47;;;;;;;;;;;;;;;28.00;nan;100649.34;5005788;28;20019;-72
2023/09/18 13:10:13;;;;;;;;;;;;;;;28.05;nan;100651.03;4985927;28;19921;-72
2023/09/18 13:12:50;;;;;;;;;;;;;;;28.08;nan;100631.41;5006358;28;19909;-71
2023/09/18 13:15:24;;;;;;;;;;;;;;;28.10;nan;100631.84;5007853;28;20504;-71
2023/09/18 13:17:50;;;;;;;;;;;;;;;27.98;nan;100608.28;5007549;28;19913;-72
2023/09/18 13:20:24;;;;;;;;;;;;;;;28.13;nan;100634.66;4986807;28;19923;-71
2023/09/18 13:22:49;;;;;;;;;;;;;;;28.13;nan;100631.16;5004983;28;19922;-71
2023/09/18 13:25:22;;;;;;;;;;;;;;;28.16;nan;100631.28;5005687;28;19923;-71
2023/09/18 13:27:48;;;;;;;;;;;;;;;28.18;nan;100622.81;5005593;28;19910;-71
2023/09/18 13:30:16;;;;;;;;;;;;;;;28.13;nan;100621.13;5004841;28;19913;-72
2023/09/18 13:32:42;;;;;;;;;;;;;;;28.09;nan;100614.81;5007287;28;19920;-71
2023/09/18 13:35:08;;;;;;;;;;;;;;;28.04;nan;100611.53;5006583;28;19917;-72
2023/09/18 13:37:33;;;;;;;;;;;;;;;28.05;nan;100602.31;5007797;28;20318;-72
2023/09/18 13:40:01;;;;;;;;;;;;;;;28.02;nan;100600.28;5003396;28;20614;-72
2023/09/18 13:42:26;;;;;;;;;;;;;;;27.95;nan;100590.00;5003846;28;19918;-72
2023/09/18 13:44:53;;;;;;;;;;;;;;;27.86;nan;100587.41;5003410;28;19920;-73
2023/09/18 13:47:18;;;;;;;;;;;;;;;27.80;nan;100594.13;5005316;28;19909;-72
2023/09/18 13:49:46;;;;;;;;;;;;;;;27.75;nan;100592.44;5004233;28;20003;-71
2023/09/18 13:52:11;;;;;;;;;;;;;;;27.69;nan;100596.47;4998516;28;19917;-72
2023/09/18 13:54:37;;;;;;;;;;;;;;;27.65;nan;100600.97;5000815;28;19921;-73
2023/09/18 13:57:04;;;;;;;;;;;;;;;27.63;nan;100605.94;5000298;28;19959;-73